Flight Track Log - Related Links

Times and Time Zones

All times are in EDT time to prevent confusion due to time zone crossing. See the LIA553 flight status page for this flight to view local times or setup timezone preferences in your user account.

Time Position Orientation Groundspeed Altitude Reporting Facility
EDT Latitude Longitude Course Direction KTS km/h feet Rate Location/Type
Fri 14:59:00 17.3642 -62.1504 131° Southeast  Level FlightAware Approximate
Fri 15:00:00 17.3199 -62.0882 125° Southeast  Level FlightAware Approximate
Fri 15:01:00 17.2774 -62.0244 125° Southeast  Level FlightAware Approximate
Fri 15:02:00 17.2338 -61.9617 128° Southeast  Level FlightAware Approximate
Fri 15:03:00 17.1880 -61.9006 128° Southeast  Level FlightAware Approximate
Fri 15:04:00 17.1427 -61.8391 125° Southeast  Level FlightAware Approximate
Fri 15:05:00 17.1367 -61.7927 90° East  Level Estimated
Fri 15:06:00 17.1367 -61.7927 90° East  Level Estimated
Fri 15:07:00 17.1367 -61.7927 90° East  Level Estimated
Fri 15:08:00 17.1367 -61.7927 90° East  Level Estimated
Fri 15:09:00 17.1367 -61.7927 90° East  Level Estimated
Fri 15:10:00 17.1367 -61.7927 90° East  Level Estimated
Fri 15:11:00 17.1367 -61.7927 90° East  Level Estimated
Fri 15:12:00 17.1367 -61.7927 90° East  Level Estimated
Fri 15:13:00 17.1367 -61.7927 90° East  Level Estimated
Fri 15:14:00 17.1367 -61.7927 90° East  Level Estimated
Fri 15:15:00 17.1367 -61.7927 90° East  Level Estimated
Fri 15:16:00 17.1367 -61.7927 90° East  Level Estimated
Fri 15:17:00 17.1367 -61.7927 90° East  Level Estimated
Fri 15:18:00 17.1367 -61.7927 90° East  Level Estimated
Fri 15:19:00 17.1367 -61.7927 90° East  Level Estimated
Fri 15:20:00 17.1367 -61.7927 90° East  Level Estimated
Fri 15:21:00 17.1367 -61.7927 90° East  Level Estimated

Login

Don't have an account? Register now (free) for customized features, flight alerts, and more!